sensor_id;sensor_type;location;lat;lon;timestamp;temperature;humidity
11079;DHT22;5592;49.234;7.268;2022-10-16T00:01:56;15.10;99.90
11079;DHT22;5592;49.234;7.268;2022-10-16T00:04:22;15.10;99.90
11079;DHT22;5592;49.234;7.268;2022-10-16T00:06:47;15.10;99.90
11079;DHT22;5592;49.234;7.268;2022-10-16T00:09:13;15.10;99.90
11079;DHT22;5592;49.234;7.268;2022-10-16T00:11:39;15.20;99.90
11079;DHT22;5592;49.234;7.268;2022-10-16T00:14:08;15.20;99.90
11079;DHT22;5592;49.234;7.268;2022-10-16T00:16:34;15.10;99.90
11079;DHT22;5592;49.234;7.268;2022-10-16T00:19:00;15.10;99.90
11079;DHT22;5592;49.234;7.268;2022-10-16T00:21:28;15.10;99.90
11079;DHT22;5592;49.234;7.268;2022-10-16T00:23:56;15.10;99.90
11079;DHT22;5592;49.234;7.268;2022-10-16T00:26:23;15.10;99.90
11079;DHT22;5592;49.234;7.268;2022-10-16T00:28:50;15.10;99.90
11079;DHT22;5592;49.234;7.268;2022-10-16T00:31:18;15.00;99.90
11079;DHT22;5592;49.234;7.268;2022-10-16T00:33:44;15.00;99.90
11079;DHT22;5592;49.234;7.268;2022-10-16T00:36:12;15.00;99.90
11079;DHT22;5592;49.234;7.268;2022-10-16T00:38:38;14.90;99.90
11079;DHT22;5592;49.234;7.268;2022-10-16T00:41:09;14.90;99.90
11079;DHT22;5592;49.234;7.268;2022-10-16T00:46:54;14.80;99.90
11079;DHT22;5592;49.234;7.268;2022-10-16T00:49:05;14.80;99.90
11079;DHT22;5592;49.234;7.268;2022-10-16T00:51:45;14.80;99.90
11079;DHT22;5592;49.234;7.268;2022-10-16T00:54:19;14.90;99.90
11079;DHT22;5592;49.234;7.268;2022-10-16T00:56:46;14.90;99.90
11079;DHT22;5592;49.234;7.268;2022-10-16T00:59:25;14.90;99.90
11079;DHT22;5592;49.234;7.268;2022-10-16T01:01:52;14.90;99.90
11079;DHT22;5592;49.234;7.268;2022-10-16T01:04:18;14.80;99.90
11079;DHT22;5592;49.234;7.268;2022-10-16T01:07:09;14.80;99.90
11079;DHT22;5592;49.234;7.268;2022-10-16T01:09:57;14.80;99.90
11079;DHT22;5592;49.234;7.268;2022-10-16T01:12:43;14.80;99.90
11079;DHT22;5592;49.234;7.268;2022-10-16T01:17:53;14.70;99.90
11079;DHT22;5592;49.234;7.268;2022-10-16T01:20:30;14.70;99.90
11079;DHT22;5592;49.234;7.268;2022-10-16T01:28:22;14.70;99.90
11079;DHT22;5592;49.234;7.268;2022-10-16T01:30:51;14.70;99.90
11079;DHT22;5592;49.234;7.268;2022-10-16T01:33:24;14.70;99.90
11079;DHT22;5592;49.234;7.268;2022-10-16T01:35:58;14.70;99.90
11079;DHT22;5592;49.234;7.268;2022-10-16T01:38:36;14.80;99.90
11079;DHT22;5592;49.234;7.268;2022-10-16T01:41:15;14.70;99.90
11079;DHT22;5592;49.234;7.268;2022-10-16T01:43:49;14.70;99.90
11079;DHT22;5592;49.234;7.268;2022-10-16T01:46:19;14.60;99.90
11079;DHT22;5592;49.234;7.268;2022-10-16T01:48:46;14.60;99.90
11079;DHT22;5592;49.234;7.268;2022-10-16T01:51:15;14.60;99.90
11079;DHT22;5592;49.234;7.268;2022-10-16T01:53:44;14.60;99.90
11079;DHT22;5592;49.234;7.268;2022-10-16T01:56:12;14.70;99.90
11079;DHT22;5592;49.234;7.268;2022-10-16T01:58:44;14.70;99.90
11079;DHT22;5592;49.234;7.268;2022-10-16T02:01:11;14.60;99.90
11079;DHT22;5592;49.234;7.268;2022-10-16T02:03:41;14.60;99.90
11079;DHT22;5592;49.234;7.268;2022-10-16T02:06:08;14.60;99.90
11079;DHT22;5592;49.234;7.268;2022-10-16T02:08:34;14.60;99.90
11079;DHT22;5592;49.234;7.268;2022-10-16T02:11:01;14.50;99.90
11079;DHT22;5592;49.234;7.268;2022-10-16T02:13:34;14.50;99.90
11079;DHT22;5592;49.234;7.268;2022-10-16T02:16:02;14.50;99.90
11079;DHT22;5592;49.234;7.268;2022-10-16T02:18:29;14.50;99.90
11079;DHT22;5592;49.234;7.268;2022-10-16T02:26:15;14.50;99.90
11079;DHT22;5592;49.234;7.268;2022-10-16T02:28:48;14.50;99.90
11079;DHT22;5592;49.234;7.268;2022-10-16T02:31:23;14.50;99.90
11079;DHT22;5592;49.234;7.268;2022-10-16T02:33:51;14.50;99.90
11079;DHT22;5592;49.234;7.268;2022-10-16T02:36:17;14.50;99.90
11079;DHT22;5592;49.234;7.268;2022-10-16T02:38:43;14.50;99.90
11079;DHT22;5592;49.234;7.268;2022-10-16T02:41:09;14.50;99.90
11079;DHT22;5592;49.234;7.268;2022-10-16T02:43:34;14.50;99.90
11079;DHT22;5592;49.234;7.268;2022-10-16T02:46:00;14.50;99.90
11079;DHT22;5592;49.234;7.268;2022-10-16T02:48:26;14.50;99.90
11079;DHT22;5592;49.234;7.268;2022-10-16T02:50:52;14.50;99.90
11079;DHT22;5592;49.234;7.268;2022-10-16T02:53:17;14.50;99.90
11079;DHT22;5592;49.234;7.268;2022-10-16T02:55:43;14.50;99.90
11079;DHT22;5592;49.234;7.268;2022-10-16T02:58:09;14.50;99.90
11079;DHT22;5592;49.234;7.268;2022-10-16T03:00:34;14.40;99.90
11079;DHT22;5592;49.234;7.268;2022-10-16T03:03:00;14.50;99.90
11079;DHT22;5592;49.234;7.268;2022-10-16T03:05:25;14.40;99.90
11079;DHT22;5592;49.234;7.268;2022-10-16T03:07:51;14.40;99.90
11079;DHT22;5592;49.234;7.268;2022-10-16T03:10:18;14.50;99.90
11079;DHT22;5592;49.234;7.268;2022-10-16T03:12:44;14.50;99.90
11079;DHT22;5592;49.234;7.268;2022-10-16T03:15:09;14.50;99.90
11079;DHT22;5592;49.234;7.268;2022-10-16T03:17:35;14.60;99.90
11079;DHT22;5592;49.234;7.268;2022-10-16T03:20:01;14.60;99.90
11079;DHT22;5592;49.234;7.268;2022-10-16T03:22:27;14.50;99.90
11079;DHT22;5592;49.234;7.268;2022-10-16T03:24:53;14.50;99.90
11079;DHT22;5592;49.234;7.268;2022-10-16T03:27:18;14.60;99.90
11079;DHT22;5592;49.234;7.268;2022-10-16T03:29:44;14.60;99.90
11079;DHT22;5592;49.234;7.268;2022-10-16T03:32:09;14.60;99.90
11079;DHT22;5592;49.234;7.268;2022-10-16T03:34:35;14.60;99.90
11079;DHT22;5592;49.234;7.268;2022-10-16T03:37:01;14.50;99.90
11079;DHT22;5592;49.234;7.268;2022-10-16T03:39:26;14.50;99.90
11079;DHT22;5592;49.234;7.268;2022-10-16T03:41:52;14.50;99.90
11079;DHT22;5592;49.234;7.268;2022-10-16T03:44:18;14.40;99.90
11079;DHT22;5592;49.234;7.268;2022-10-16T03:46:46;14.40;99.90
11079;DHT22;5592;49.234;7.268;2022-10-16T03:49:11;14.30;99.90
11079;DHT22;5592;49.234;7.268;2022-10-16T03:51:37;14.30;99.90
11079;DHT22;5592;49.234;7.268;2022-10-16T03:54:03;14.30;99.90
11079;DHT22;5592;49.234;7.268;2022-10-16T03:56:28;14.30;99.90
11079;DHT22;5592;49.234;7.268;2022-10-16T03:58:54;14.40;99.90
11079;DHT22;5592;49.234;7.268;2022-10-16T04:01:19;14.40;99.90
11079;DHT22;5592;49.234;7.268;2022-10-16T04:03:45;14.40;99.90
11079;DHT22;5592;49.234;7.268;2022-10-16T04:06:11;14.30;99.90
11079;DHT22;5592;49.234;7.268;2022-10-16T04:08:36;14.30;99.90
11079;DHT22;5592;49.234;7.268;2022-10-16T04:11:03;14.20;99.90
11079;DHT22;5592;49.234;7.268;2022-10-16T04:13:28;14.20;99.90
11079;DHT22;5592;49.234;7.268;2022-10-16T04:15:54;14.10;99.90
11079;DHT22;5592;49.234;7.268;2022-10-16T04:18:20;14.10;99.90
11079;DHT22;5592;49.234;7.268;2022-10-16T04:20:45;14.10;99.90
11079;DHT22;5592;49.234;7.268;2022-10-16T04:23:11;14.10;99.90
11079;DHT22;5592;49.234;7.268;2022-10-16T04:25:36;14.20;99.90
11079;DHT22;5592;49.234;7.268;2022-10-16T04:28:02;14.10;99.90
11079;DHT22;5592;49.234;7.268;2022-10-16T04:30:28;14.00;99.90
11079;DHT22;5592;49.234;7.268;2022-10-16T04:32:54;14.00;99.90
11079;DHT22;5592;49.234;7.268;2022-10-16T04:35:22;14.00;99.90
11079;DHT22;5592;49.234;7.268;2022-10-16T04:37:48;13.90;99.90
11079;DHT22;5592;49.234;7.268;2022-10-16T04:40:14;14.00;99.90
11079;DHT22;5592;49.234;7.268;2022-10-16T04:42:39;14.00;99.90
11079;DHT22;5592;49.234;7.268;2022-10-16T04:45:06;14.00;99.90
11079;DHT22;5592;49.234;7.268;2022-10-16T04:47:33;14.00;99.90
11079;DHT22;5592;49.234;7.268;2022-10-16T04:49:59;14.00;99.90
11079;DHT22;5592;49.234;7.268;2022-10-16T04:52:26;14.10;99.90
11079;DHT22;5592;49.234;7.268;2022-10-16T04:54:52;14.10;99.90
11079;DHT22;5592;49.234;7.268;2022-10-16T04:57:17;14.10;99.90
11079;DHT22;5592;49.234;7.268;2022-10-16T04:59:43;14.10;99.90
11079;DHT22;5592;49.234;7.268;2022-10-16T05:02:08;14.10;99.90
11079;DHT22;5592;49.234;7.268;2022-10-16T05:04:34;14.00;99.90
11079;DHT22;5592;49.234;7.268;2022-10-16T05:07:00;14.00;99.90
11079;DHT22;5592;49.234;7.268;2022-10-16T05:09:25;14.00;99.90
11079;DHT22;5592;49.234;7.268;2022-10-16T05:11:51;14.00;99.90
11079;DHT22;5592;49.234;7.268;2022-10-16T05:14:16;14.10;99.90
11079;DHT22;5592;49.234;7.268;2022-10-16T05:16:42;14.10;99.90
11079;DHT22;5592;49.234;7.268;2022-10-16T05:19:08;14.20;99.90
11079;DHT22;5592;49.234;7.268;2022-10-16T05:21:33;14.20;99.90
11079;DHT22;5592;49.234;7.268;2022-10-16T05:23:59;14.10;99.90
11079;DHT22;5592;49.234;7.268;2022-10-16T05:26:24;14.10;99.90
11079;DHT22;5592;49.234;7.268;2022-10-16T05:28:50;14.10;99.90
11079;DHT22;5592;49.234;7.268;2022-10-16T05:31:16;14.10;99.90
11079;DHT22;5592;49.234;7.268;2022-10-16T05:33:42;14.10;99.90
11079;DHT22;5592;49.234;7.268;2022-10-16T05:36:09;14.10;99.90
11079;DHT22;5592;49.234;7.268;2022-10-16T05:38:36;14.10;99.90
11079;DHT22;5592;49.234;7.268;2022-10-16T05:41:03;14.10;99.90
11079;DHT22;5592;49.234;7.268;2022-10-16T05:43:30;14.10;99.90
11079;DHT22;5592;49.234;7.268;2022-10-16T05:46:05;14.10;99.90
11079;DHT22;5592;49.234;7.268;2022-10-16T05:48:31;14.10;99.90
11079;DHT22;5592;49.234;7.268;2022-10-16T05:51:03;14.10;99.90
11079;DHT22;5592;49.234;7.268;2022-10-16T05:53:31;14.00;99.90
11079;DHT22;5592;49.234;7.268;2022-10-16T05:55:57;14.00;99.90
11079;DHT22;5592;49.234;7.268;2022-10-16T05:58:25;14.00;99.90
11079;DHT22;5592;49.234;7.268;2022-10-16T06:01:00;14.00;99.90
11079;DHT22;5592;49.234;7.268;2022-10-16T06:03:27;14.00;99.90
11079;DHT22;5592;49.234;7.268;2022-10-16T06:05:52;14.00;99.90
11079;DHT22;5592;49.234;7.268;2022-10-16T06:08:20;14.00;99.90
11079;DHT22;5592;49.234;7.268;2022-10-16T06:10:46;14.00;99.90
11079;DHT22;5592;49.234;7.268;2022-10-16T06:13:15;14.10;99.90
11079;DHT22;5592;49.234;7.268;2022-10-16T06:15:42;14.10;99.90
11079;DHT22;5592;49.234;7.268;2022-10-16T06:18:09;14.10;99.90
11079;DHT22;5592;49.234;7.268;2022-10-16T06:20:35;14.10;99.90
11079;DHT22;5592;49.234;7.268;2022-10-16T06:23:01;14.10;99.90
11079;DHT22;5592;49.234;7.268;2022-10-16T06:25:27;14.10;99.90
11079;DHT22;5592;49.234;7.268;2022-10-16T06:27:52;14.10;99.90
11079;DHT22;5592;49.234;7.268;2022-10-16T06:30:18;14.10;99.90
11079;DHT22;5592;49.234;7.268;2022-10-16T06:32:44;14.20;99.90
11079;DHT22;5592;49.234;7.268;2022-10-16T06:35:09;14.30;99.90
11079;DHT22;5592;49.234;7.268;2022-10-16T06:37:35;14.40;99.90
11079;DHT22;5592;49.234;7.268;2022-10-16T06:40:01;14.40;99.90
11079;DHT22;5592;49.234;7.268;2022-10-16T06:42:29;14.40;99.90
11079;DHT22;5592;49.234;7.268;2022-10-16T06:44:55;14.40;99.90
11079;DHT22;5592;49.234;7.268;2022-10-16T06:47:21;14.50;99.90
11079;DHT22;5592;49.234;7.268;2022-10-16T06:49:46;14.50;99.90
11079;DHT22;5592;49.234;7.268;2022-10-16T06:52:12;14.60;99.90
11079;DHT22;5592;49.234;7.268;2022-10-16T06:54:37;14.60;99.90
11079;DHT22;5592;49.234;7.268;2022-10-16T06:57:03;14.70;99.90
11079;DHT22;5592;49.234;7.268;2022-10-16T06:59:29;14.80;99.90
11079;DHT22;5592;49.234;7.268;2022-10-16T07:01:54;14.80;99.90
11079;DHT22;5592;49.234;7.268;2022-10-16T07:04:20;14.80;99.90
11079;DHT22;5592;49.234;7.268;2022-10-16T07:06:45;14.90;99.90
11079;DHT22;5592;49.234;7.268;2022-10-16T07:09:11;14.90;99.90
11079;DHT22;5592;49.234;7.268;2022-10-16T07:11:39;14.90;99.90
11079;DHT22;5592;49.234;7.268;2022-10-16T07:14:04;15.00;99.90
11079;DHT22;5592;49.234;7.268;2022-10-16T07:16:32;15.10;99.90
11079;DHT22;5592;49.234;7.268;2022-10-16T07:18:59;15.20;99.90
11079;DHT22;5592;49.234;7.268;2022-10-16T07:21:31;15.30;99.90
11079;DHT22;5592;49.234;7.268;2022-10-16T07:24:01;15.40;99.90
11079;DHT22;5592;49.234;7.268;2022-10-16T07:26:29;15.50;99.90
11079;DHT22;5592;49.234;7.268;2022-10-16T07:28:56;15.60;99.90
11079;DHT22;5592;49.234;7.268;2022-10-16T07:31:22;15.60;99.90
11079;DHT22;5592;49.234;7.268;2022-10-16T07:33:49;15.60;99.90
11079;DHT22;5592;49.234;7.268;2022-10-16T07:36:16;15.70;99.90
11079;DHT22;5592;49.234;7.268;2022-10-16T07:38:43;15.70;99.90
11079;DHT22;5592;49.234;7.268;2022-10-16T07:41:12;15.70;99.90
11079;DHT22;5592;49.234;7.268;2022-10-16T07:43:38;15.80;99.90
11079;DHT22;5592;49.234;7.268;2022-10-16T07:46:03;15.90;99.90
11079;DHT22;5592;49.234;7.268;2022-10-16T07:48:31;16.00;99.90
11079;DHT22;5592;49.234;7.268;2022-10-16T07:50:59;16.10;99.90
11079;DHT22;5592;49.234;7.268;2022-10-16T07:53:25;16.20;99.90
11079;DHT22;5592;49.234;7.268;2022-10-16T07:55:50;16.30;99.90
11079;DHT22;5592;49.234;7.268;2022-10-16T07:58:16;16.50;99.90
11079;DHT22;5592;49.234;7.268;2022-10-16T08:00:42;16.70;99.90
11079;DHT22;5592;49.234;7.268;2022-10-16T08:03:08;16.80;99.90
11079;DHT22;5592;49.234;7.268;2022-10-16T08:05:34;17.00;99.90
11079;DHT22;5592;49.234;7.268;2022-10-16T08:08:00;17.10;99.90
11079;DHT22;5592;49.234;7.268;2022-10-16T08:10:27;17.30;99.90
11079;DHT22;5592;49.234;7.268;2022-10-16T08:12:53;17.50;99.90
11079;DHT22;5592;49.234;7.268;2022-10-16T08:15:19;17.70;99.90
11079;DHT22;5592;49.234;7.268;2022-10-16T08:17:57;18.10;99.90
11079;DHT22;5592;49.234;7.268;2022-10-16T08:20:24;18.30;99.90
11079;DHT22;5592;49.234;7.268;2022-10-16T08:22:50;18.60;99.90
11079;DHT22;5592;49.234;7.268;2022-10-16T08:25:15;18.80;99.90
11079;DHT22;5592;49.234;7.268;2022-10-16T08:27:41;19.10;99.90
11079;DHT22;5592;49.234;7.268;2022-10-16T08:30:07;19.80;99.90
11079;DHT22;5592;49.234;7.268;2022-10-16T08:32:34;20.40;99.90
11079;DHT22;5592;49.234;7.268;2022-10-16T08:34:59;20.80;99.90
11079;DHT22;5592;49.234;7.268;2022-10-16T08:37:29;21.20;99.90
11079;DHT22;5592;49.234;7.268;2022-10-16T08:39:54;21.30;99.90
11079;DHT22;5592;49.234;7.268;2022-10-16T08:47:43;21.80;99.90
11079;DHT22;5592;49.234;7.268;2022-10-16T08:50:19;21.90;99.90
11079;DHT22;5592;49.234;7.268;2022-10-16T08:52:47;21.80;99.90
11079;DHT22;5592;49.234;7.268;2022-10-16T08:58:28;22.10;99.90
11079;DHT22;5592;49.234;7.268;2022-10-16T09:00:59;21.60;99.90
11079;DHT22;5592;49.234;7.268;2022-10-16T09:04:01;21.60;99.90
11079;DHT22;5592;49.234;7.268;2022-10-16T09:12:37;23.10;99.90
11079;DHT22;5592;49.234;7.268;2022-10-16T09:18:37;24.60;99.90
11079;DHT22;5592;49.234;7.268;2022-10-16T09:21:09;25.60;99.90
11079;DHT22;5592;49.234;7.268;2022-10-16T09:23:37;25.80;99.90
11079;DHT22;5592;49.234;7.268;2022-10-16T09:26:11;25.80;99.90
11079;DHT22;5592;49.234;7.268;2022-10-16T09:28:37;25.50;99.90
11079;DHT22;5592;49.234;7.268;2022-10-16T09:31:03;24.60;99.90
11079;DHT22;5592;49.234;7.268;2022-10-16T09:33:33;24.10;99.90
11079;DHT22;5592;49.234;7.268;2022-10-16T09:36:03;23.90;99.90
11079;DHT22;5592;49.234;7.268;2022-10-16T09:38:35;23.90;99.90
11079;DHT22;5592;49.234;7.268;2022-10-16T09:41:03;24.20;99.90
11079;DHT22;5592;49.234;7.268;2022-10-16T09:43:41;24.20;99.90
11079;DHT22;5592;49.234;7.268;2022-10-16T09:46:19;24.30;99.90
11079;DHT22;5592;49.234;7.268;2022-10-16T09:48:50;24.10;99.90
11079;DHT22;5592;49.234;7.268;2022-10-16T09:51:37;23.90;99.90
11079;DHT22;5592;49.234;7.268;2022-10-16T09:54:18;23.60;99.90
11079;DHT22;5592;49.234;7.268;2022-10-16T09:56:44;23.30;99.90
11079;DHT22;5592;49.234;7.268;2022-10-16T09:59:19;23.60;99.90
11079;DHT22;5592;49.234;7.268;2022-10-16T10:01:54;24.20;99.90
11079;DHT22;5592;49.234;7.268;2022-10-16T10:04:23;24.90;99.90
11079;DHT22;5592;49.234;7.268;2022-10-16T10:06:56;24.90;99.90
11079;DHT22;5592;49.234;7.268;2022-10-16T10:09:37;24.60;99.90
11079;DHT22;5592;49.234;7.268;2022-10-16T10:12:05;24.50;99.90
11079;DHT22;5592;49.234;7.268;2022-10-16T10:14:39;24.10;99.90
11079;DHT22;5592;49.234;7.268;2022-10-16T10:17:27;23.90;99.90
11079;DHT22;5592;49.234;7.268;2022-10-16T10:20:26;23.50;99.90
11079;DHT22;5592;49.234;7.268;2022-10-16T10:22:53;23.20;99.90
11079;DHT22;5592;49.234;7.268;2022-10-16T10:25:31;23.00;99.90
11079;DHT22;5592;49.234;7.268;2022-10-16T10:31:14;23.50;99.90
11079;DHT22;5592;49.234;7.268;2022-10-16T10:36:28;24.70;99.90
11079;DHT22;5592;49.234;7.268;2022-10-16T10:38:59;24.80;99.90
11079;DHT22;5592;49.234;7.268;2022-10-16T10:41:56;24.40;99.90
11079;DHT22;5592;49.234;7.268;2022-10-16T10:47:35;23.60;99.90
11079;DHT22;5592;49.234;7.268;2022-10-16T10:50:20;23.50;99.90
11079;DHT22;5592;49.234;7.268;2022-10-16T11:06:17;23.00;99.90
11079;DHT22;5592;49.234;7.268;2022-10-16T11:08:53;22.80;99.90
11079;DHT22;5592;49.234;7.268;2022-10-16T11:11:29;22.70;99.90
11079;DHT22;5592;49.234;7.268;2022-10-16T11:21:52;22.40;99.90
11079;DHT22;5592;49.234;7.268;2022-10-16T11:24:24;22.20;99.90
11079;DHT22;5592;49.234;7.268;2022-10-16T11:26:54;21.90;99.90
11079;DHT22;5592;49.234;7.268;2022-10-16T11:29:25;21.70;99.90
11079;DHT22;5592;49.234;7.268;2022-10-16T11:32:05;21.70;99.90
11079;DHT22;5592;49.234;7.268;2022-10-16T11:34:41;21.70;99.90
11079;DHT22;5592;49.234;7.268;2022-10-16T11:37:10;21.60;99.90
11079;DHT22;5592;49.234;7.268;2022-10-16T11:39:38;21.80;99.90
11079;DHT22;5592;49.234;7.268;2022-10-16T11:42:19;21.80;99.90
11079;DHT22;5592;49.234;7.268;2022-10-16T11:47:54;22.10;99.90
11079;DHT22;5592;49.234;7.268;2022-10-16T11:50:29;22.00;99.90
11079;DHT22;5592;49.234;7.268;2022-10-16T11:55:37;22.30;99.90
11079;DHT22;5592;49.234;7.268;2022-10-16T11:58:07;22.40;99.90
11079;DHT22;5592;49.234;7.268;2022-10-16T12:08:41;22.30;99.90
11079;DHT22;5592;49.234;7.268;2022-10-16T12:11:38;22.20;99.90
11079;DHT22;5592;49.234;7.268;2022-10-16T12:16:39;22.00;99.90
11079;DHT22;5592;49.234;7.268;2022-10-16T12:19:17;22.00;99.90
11079;DHT22;5592;49.234;7.268;2022-10-16T12:21:44;21.80;99.90
11079;DHT22;5592;49.234;7.268;2022-10-16T12:26:53;21.70;99.90
11079;DHT22;5592;49.234;7.268;2022-10-16T12:31:51;21.70;99.90
11079;DHT22;5592;49.234;7.268;2022-10-16T12:34:28;21.60;99.90
11079;DHT22;5592;49.234;7.268;2022-10-16T12:36:55;21.30;99.90
11079;DHT22;5592;49.234;7.268;2022-10-16T12:39:25;21.20;99.90
11079;DHT22;5592;49.234;7.268;2022-10-16T12:42:04;21.20;99.90
11079;DHT22;5592;49.234;7.268;2022-10-16T12:44:35;21.10;99.90
11079;DHT22;5592;49.234;7.268;2022-10-16T12:47:01;21.00;99.90
11079;DHT22;5592;49.234;7.268;2022-10-16T12:49:32;21.00;99.90
11079;DHT22;5592;49.234;7.268;2022-10-16T12:51:58;21.00;99.90
11079;DHT22;5592;49.234;7.268;2022-10-16T12:54:35;21.00;99.90
11079;DHT22;5592;49.234;7.268;2022-10-16T13:08:24;20.70;99.90
11079;DHT22;5592;49.234;7.268;2022-10-16T13:13:44;20.50;99.90
11079;DHT22;5592;49.234;7.268;2022-10-16T13:16:41;20.50;99.90
11079;DHT22;5592;49.234;7.268;2022-10-16T13:22:15;20.00;99.90
11079;DHT22;5592;49.234;7.268;2022-10-16T13:27:25;20.30;99.90
11079;DHT22;5592;49.234;7.268;2022-10-16T13:29:54;20.50;99.90
11079;DHT22;5592;49.234;7.268;2022-10-16T13:32:26;20.40;99.90
11079;DHT22;5592;49.234;7.268;2022-10-16T13:34:52;20.60;99.90
11079;DHT22;5592;49.234;7.268;2022-10-16T13:37:24;20.70;99.90
11079;DHT22;5592;49.234;7.268;2022-10-16T13:39:50;20.90;99.90
11079;DHT22;5592;49.234;7.268;2022-10-16T13:42:26;21.00;99.90
11079;DHT22;5592;49.234;7.268;2022-10-16T13:44:54;21.10;99.90
11079;DHT22;5592;49.234;7.268;2022-10-16T13:47:26;21.30;99.90
11079;DHT22;5592;49.234;7.268;2022-10-16T13:50:03;21.40;99.90
11079;DHT22;5592;49.234;7.268;2022-10-16T13:52:30;21.40;99.90
11079;DHT22;5592;49.234;7.268;2022-10-16T13:54:56;21.50;99.90
11079;DHT22;5592;49.234;7.268;2022-10-16T13:57:23;21.60;99.90
11079;DHT22;5592;49.234;7.268;2022-10-16T13:59:50;21.80;99.90
11079;DHT22;5592;49.234;7.268;2022-10-16T14:04:45;21.80;99.90
11079;DHT22;5592;49.234;7.268;2022-10-16T14:07:16;21.80;99.90
11079;DHT22;5592;49.234;7.268;2022-10-16T14:09:48;21.80;99.90
11079;DHT22;5592;49.234;7.268;2022-10-16T14:12:15;21.50;99.90
11079;DHT22;5592;49.234;7.268;2022-10-16T14:14:47;21.50;99.90
11079;DHT22;5592;49.234;7.268;2022-10-16T14:19:52;21.00;99.90
11079;DHT22;5592;49.234;7.268;2022-10-16T14:22:39;21.00;99.90
11079;DHT22;5592;49.234;7.268;2022-10-16T14:28:21;21.10;99.90
11079;DHT22;5592;49.234;7.268;2022-10-16T14:30:58;21.00;99.90
11079;DHT22;5592;49.234;7.268;2022-10-16T14:36:16;21.00;99.90
11079;DHT22;5592;49.234;7.268;2022-10-16T14:41:28;21.30;99.90
11079;DHT22;5592;49.234;7.268;2022-10-16T14:44:04;21.10;99.90
11079;DHT22;5592;49.234;7.268;2022-10-16T14:46:38;20.90;99.90
11079;DHT22;5592;49.234;7.268;2022-10-16T14:51:39;20.90;99.90
11079;DHT22;5592;49.234;7.268;2022-10-16T14:54:08;20.80;99.90
11079;DHT22;5592;49.234;7.268;2022-10-16T14:56:55;20.60;99.90
11079;DHT22;5592;49.234;7.268;2022-10-16T14:59:33;20.30;99.90
11079;DHT22;5592;49.234;7.268;2022-10-16T15:04:40;20.10;99.90
11079;DHT22;5592;49.234;7.268;2022-10-16T15:07:07;20.10;99.90
11079;DHT22;5592;49.234;7.268;2022-10-16T15:09:35;20.00;99.90
11079;DHT22;5592;49.234;7.268;2022-10-16T15:12:01;20.00;99.90
11079;DHT22;5592;49.234;7.268;2022-10-16T15:14:27;20.10;99.90
11079;DHT22;5592;49.234;7.268;2022-10-16T15:16:52;20.10;99.90
11079;DHT22;5592;49.234;7.268;2022-10-16T15:19:21;20.20;99.90
11079;DHT22;5592;49.234;7.268;2022-10-16T15:21:47;20.30;99.90
11079;DHT22;5592;49.234;7.268;2022-10-16T15:24:13;20.30;99.90
11079;DHT22;5592;49.234;7.268;2022-10-16T15:26:39;20.30;99.90
11079;DHT22;5592;49.234;7.268;2022-10-16T15:29:05;20.20;99.90
11079;DHT22;5592;49.234;7.268;2022-10-16T15:31:31;20.10;99.90
11079;DHT22;5592;49.234;7.268;2022-10-16T15:33:57;20.00;99.90
11079;DHT22;5592;49.234;7.268;2022-10-16T15:36:31;19.90;99.90
11079;DHT22;5592;49.234;7.268;2022-10-16T15:38:59;19.80;99.90
11079;DHT22;5592;49.234;7.268;2022-10-16T15:41:25;19.80;99.90
11079;DHT22;5592;49.234;7.268;2022-10-16T15:43:51;19.70;99.90
11079;DHT22;5592;49.234;7.268;2022-10-16T15:46:21;19.60;99.90
11079;DHT22;5592;49.234;7.268;2022-10-16T15:48:48;19.50;99.90
11079;DHT22;5592;49.234;7.268;2022-10-16T15:51:13;19.30;99.90
11079;DHT22;5592;49.234;7.268;2022-10-16T15:53:39;19.30;99.90
11079;DHT22;5592;49.234;7.268;2022-10-16T15:56:06;19.20;99.90
11079;DHT22;5592;49.234;7.268;2022-10-16T15:58:33;19.10;99.90
11079;DHT22;5592;49.234;7.268;2022-10-16T16:01:01;19.00;99.90
11079;DHT22;5592;49.234;7.268;2022-10-16T16:03:28;18.80;99.90
11079;DHT22;5592;49.234;7.268;2022-10-16T16:05:56;18.60;99.90
11079;DHT22;5592;49.234;7.268;2022-10-16T16:08:22;18.50;99.90
11079;DHT22;5592;49.234;7.268;2022-10-16T16:11:10;18.30;99.90
11079;DHT22;5592;49.234;7.268;2022-10-16T16:13:37;18.10;99.90
11079;DHT22;5592;49.234;7.268;2022-10-16T16:16:11;17.90;99.90
11079;DHT22;5592;49.234;7.268;2022-10-16T16:18:37;17.80;99.90
11079;DHT22;5592;49.234;7.268;2022-10-16T16:21:04;17.70;99.90
11079;DHT22;5592;49.234;7.268;2022-10-16T16:23:30;17.60;99.90
11079;DHT22;5592;49.234;7.268;2022-10-16T16:26:25;17.40;99.90
11079;DHT22;5592;49.234;7.268;2022-10-16T16:28:52;17.10;99.90
11079;DHT22;5592;49.234;7.268;2022-10-16T16:31:18;17.00;99.90
11079;DHT22;5592;49.234;7.268;2022-10-16T16:33:44;16.80;99.90
11079;DHT22;5592;49.234;7.268;2022-10-16T16:36:10;16.60;99.90
11079;DHT22;5592;49.234;7.268;2022-10-16T16:38:36;16.40;99.90
11079;DHT22;5592;49.234;7.268;2022-10-16T16:41:19;16.30;99.90
11079;DHT22;5592;49.234;7.268;2022-10-16T16:43:48;16.20;99.90
11079;DHT22;5592;49.234;7.268;2022-10-16T16:46:15;16.00;99.90
11079;DHT22;5592;49.234;7.268;2022-10-16T16:48:41;15.90;99.90
11079;DHT22;5592;49.234;7.268;2022-10-16T16:51:12;15.80;99.90
11079;DHT22;5592;49.234;7.268;2022-10-16T16:53:46;15.60;99.90
11079;DHT22;5592;49.234;7.268;2022-10-16T16:56:13;15.50;99.90
11079;DHT22;5592;49.234;7.268;2022-10-16T16:58:39;15.40;99.90
11079;DHT22;5592;49.234;7.268;2022-10-16T17:01:05;15.50;99.90
11079;DHT22;5592;49.234;7.268;2022-10-16T17:03:33;15.40;99.90
11079;DHT22;5592;49.234;7.268;2022-10-16T17:06:01;15.30;99.90
11079;DHT22;5592;49.234;7.268;2022-10-16T17:08:27;15.20;99.90
11079;DHT22;5592;49.234;7.268;2022-10-16T17:10:54;15.10;99.90
11079;DHT22;5592;49.234;7.268;2022-10-16T17:13:25;15.00;99.90
11079;DHT22;5592;49.234;7.268;2022-10-16T17:15:51;15.00;99.90
11079;DHT22;5592;49.234;7.268;2022-10-16T17:18:17;15.00;99.90
11079;DHT22;5592;49.234;7.268;2022-10-16T17:20:45;14.90;99.90
11079;DHT22;5592;49.234;7.268;2022-10-16T17:23:11;14.90;99.90
11079;DHT22;5592;49.234;7.268;2022-10-16T17:25:37;14.80;99.90
11079;DHT22;5592;49.234;7.268;2022-10-16T17:28:04;14.60;99.90
11079;DHT22;5592;49.234;7.268;2022-10-16T17:30:29;14.60;99.90
11079;DHT22;5592;49.234;7.268;2022-10-16T17:32:55;14.40;99.90
11079;DHT22;5592;49.234;7.268;2022-10-16T17:35:21;14.40;99.90
11079;DHT22;5592;49.234;7.268;2022-10-16T17:37:46;14.30;99.90
11079;DHT22;5592;49.234;7.268;2022-10-16T17:40:12;14.30;99.90
11079;DHT22;5592;49.234;7.268;2022-10-16T17:42:38;14.30;99.90
11079;DHT22;5592;49.234;7.268;2022-10-16T17:45:04;14.40;99.90
11079;DHT22;5592;49.234;7.268;2022-10-16T17:47:29;14.40;99.90
11079;DHT22;5592;49.234;7.268;2022-10-16T17:49:55;14.30;99.90
11079;DHT22;5592;49.234;7.268;2022-10-16T17:52:23;14.20;99.90
11079;DHT22;5592;49.234;7.268;2022-10-16T17:54:50;14.10;99.90
11079;DHT22;5592;49.234;7.268;2022-10-16T17:57:19;14.00;99.90
11079;DHT22;5592;49.234;7.268;2022-10-16T17:59:44;13.90;99.90
11079;DHT22;5592;49.234;7.268;2022-10-16T18:02:10;13.90;99.90